sensor_id;sensor_type;location;lat;lon;timestamp;pressure;altitude;pressure_sealevel;temperature;humidity
42125;BME280;27787;44.594;11.046;2022-07-23T00:00:31;100839.44;;;29.57;41.97
42125;BME280;27787;44.594;11.046;2022-07-23T00:03:16;100840.50;;;29.55;42.31
42125;BME280;27787;44.594;11.046;2022-07-23T00:06:00;100839.97;;;29.50;42.29
42125;BME280;27787;44.594;11.046;2022-07-23T00:08:44;100836.00;;;29.41;42.28
42125;BME280;27787;44.594;11.046;2022-07-23T00:11:28;100839.19;;;29.35;42.05
42125;BME280;27787;44.594;11.046;2022-07-23T00:14:13;100844.84;;;29.32;42.30
42125;BME280;27787;44.594;11.046;2022-07-23T00:16:57;100843.72;;;29.22;42.17
42125;BME280;27787;44.594;11.046;2022-07-23T00:19:41;100843.25;;;29.15;41.56
42125;BME280;27787;44.594;11.046;2022-07-23T00:22:25;100839.56;;;29.16;41.77
42125;BME280;27787;44.594;11.046;2022-07-23T00:25:09;100844.06;;;29.17;41.56
42125;BME280;27787;44.594;11.046;2022-07-23T00:27:53;100842.75;;;29.23;41.45
42125;BME280;27787;44.594;11.046;2022-07-23T00:30:37;100836.09;;;29.27;41.58
42125;BME280;27787;44.594;11.046;2022-07-23T00:33:22;100826.97;;;29.28;41.56
42125;BME280;27787;44.594;11.046;2022-07-23T00:36:06;100833.19;;;29.30;41.38
42125;BME280;27787;44.594;11.046;2022-07-23T00:38:50;100832.22;;;29.31;41.59
42125;BME280;27787;44.594;11.046;2022-07-23T00:41:34;100832.22;;;29.31;41.19
42125;BME280;27787;44.594;11.046;2022-07-23T00:44:19;100840.69;;;29.26;41.72
42125;BME280;27787;44.594;11.046;2022-07-23T00:47:04;100833.81;;;29.21;42.80
42125;BME280;27787;44.594;11.046;2022-07-23T00:49:49;100838.47;;;29.06;43.75
42125;BME280;27787;44.594;11.046;2022-07-23T00:52:34;100839.44;;;28.78;44.04
42125;BME280;27787;44.594;11.046;2022-07-23T00:55:18;100836.81;;;28.49;44.77
42125;BME280;27787;44.594;11.046;2022-07-23T00:58:04;100826.41;;;28.29;45.03
42125;BME280;27787;44.594;11.046;2022-07-23T01:00:48;100825.88;;;28.23;44.69
42125;BME280;27787;44.594;11.046;2022-07-23T01:03:32;100822.31;;;28.22;45.21
42125;BME280;27787;44.594;11.046;2022-07-23T01:06:16;100816.88;;;28.22;45.34
42125;BME280;27787;44.594;11.046;2022-07-23T01:09:00;100809.13;;;28.16;44.80
42125;BME280;27787;44.594;11.046;2022-07-23T01:11:45;100812.63;;;28.18;45.29
42125;BME280;27787;44.594;11.046;2022-07-23T01:14:29;100811.97;;;28.14;44.38
42125;BME280;27787;44.594;11.046;2022-07-23T01:17:13;100810.00;;;28.16;44.67
42125;BME280;27787;44.594;11.046;2022-07-23T01:19:58;100810.56;;;28.21;45.29
42125;BME280;27787;44.594;11.046;2022-07-23T01:22:43;100806.31;;;28.17;45.47
42125;BME280;27787;44.594;11.046;2022-07-23T01:25:28;100807.50;;;28.13;45.63
42125;BME280;27787;44.594;11.046;2022-07-23T01:28:15;100805.38;;;28.04;45.38
42125;BME280;27787;44.594;11.046;2022-07-23T01:30:59;100810.53;;;27.95;45.83
42125;BME280;27787;44.594;11.046;2022-07-23T01:33:48;100813.53;;;27.90;45.99
42125;BME280;27787;44.594;11.046;2022-07-23T01:36:34;100802.09;;;27.85;46.33
42125;BME280;27787;44.594;11.046;2022-07-23T01:39:18;100799.38;;;27.85;47.27
42125;BME280;27787;44.594;11.046;2022-07-23T01:42:03;100803.25;;;27.81;47.46
42125;BME280;27787;44.594;11.046;2022-07-23T01:44:48;100807.81;;;27.80;47.47
42125;BME280;27787;44.594;11.046;2022-07-23T01:47:37;100806.19;;;27.78;47.86
42125;BME280;27787;44.594;11.046;2022-07-23T01:50:21;100804.34;;;27.78;47.78
42125;BME280;27787;44.594;11.046;2022-07-23T01:53:25;100804.41;;;27.62;48.29
42125;BME280;27787;44.594;11.046;2022-07-23T01:56:09;100813.41;;;27.49;48.63
42125;BME280;27787;44.594;11.046;2022-07-23T01:58:53;100813.97;;;27.40;49.02
42125;BME280;27787;44.594;11.046;2022-07-23T02:01:39;100806.31;;;27.32;49.46
42125;BME280;27787;44.594;11.046;2022-07-23T02:04:24;100807.56;;;27.26;49.67
42125;BME280;27787;44.594;11.046;2022-07-23T02:07:09;100808.72;;;27.22;49.98
42125;BME280;27787;44.594;11.046;2022-07-23T02:09:53;100807.06;;;27.20;50.11
42125;BME280;27787;44.594;11.046;2022-07-23T02:12:37;100816.91;;;27.21;50.52
42125;BME280;27787;44.594;11.046;2022-07-23T02:15:22;100809.66;;;27.21;50.77
42125;BME280;27787;44.594;11.046;2022-07-23T02:18:06;100821.00;;;27.14;51.09
42125;BME280;27787;44.594;11.046;2022-07-23T02:20:52;100819.69;;;27.05;51.59
42125;BME280;27787;44.594;11.046;2022-07-23T02:23:36;100823.47;;;27.02;51.68
42125;BME280;27787;44.594;11.046;2022-07-23T02:26:20;100833.69;;;26.97;52.29
42125;BME280;27787;44.594;11.046;2022-07-23T02:29:05;100839.81;;;27.01;51.82
42125;BME280;27787;44.594;11.046;2022-07-23T02:31:50;100842.25;;;27.06;51.45
42125;BME280;27787;44.594;11.046;2022-07-23T02:34:35;100832.47;;;27.03;51.79
42125;BME280;27787;44.594;11.046;2022-07-23T02:37:19;100840.50;;;27.04;51.46
42125;BME280;27787;44.594;11.046;2022-07-23T02:40:04;100844.09;;;27.05;51.57
42125;BME280;27787;44.594;11.046;2022-07-23T02:42:51;100843.22;;;27.04;51.58
42125;BME280;27787;44.594;11.046;2022-07-23T02:45:35;100847.00;;;27.02;52.00
42125;BME280;27787;44.594;11.046;2022-07-23T02:48:19;100843.13;;;26.90;53.28
42125;BME280;27787;44.594;11.046;2022-07-23T02:51:05;100853.22;;;26.72;53.61
42125;BME280;27787;44.594;11.046;2022-07-23T02:53:55;100862.56;;;26.67;52.73
42125;BME280;27787;44.594;11.046;2022-07-23T02:56:40;100863.28;;;26.70;52.98
42125;BME280;27787;44.594;11.046;2022-07-23T02:59:24;100857.69;;;26.73;53.90
42125;BME280;27787;44.594;11.046;2022-07-23T03:02:08;100866.97;;;26.69;54.05
42125;BME280;27787;44.594;11.046;2022-07-23T03:04:52;100871.84;;;26.63;54.43
42125;BME280;27787;44.594;11.046;2022-07-23T03:07:37;100875.50;;;26.62;54.65
42125;BME280;27787;44.594;11.046;2022-07-23T03:10:22;100872.44;;;26.68;54.28
42125;BME280;27787;44.594;11.046;2022-07-23T03:13:06;100880.06;;;26.61;54.14
42125;BME280;27787;44.594;11.046;2022-07-23T03:15:50;100879.63;;;26.53;54.90
42125;BME280;27787;44.594;11.046;2022-07-23T03:18:35;100888.28;;;26.60;54.28
42125;BME280;27787;44.594;11.046;2022-07-23T03:21:19;100886.16;;;26.65;54.08
42125;BME280;27787;44.594;11.046;2022-07-23T03:24:04;100890.53;;;26.67;54.12
42125;BME280;27787;44.594;11.046;2022-07-23T03:26:49;100890.19;;;26.58;55.04
42125;BME280;27787;44.594;11.046;2022-07-23T03:29:34;100894.66;;;26.59;54.62
42125;BME280;27787;44.594;11.046;2022-07-23T03:32:19;100896.13;;;26.64;54.20
42125;BME280;27787;44.594;11.046;2022-07-23T03:35:04;100899.88;;;26.62;54.93
42125;BME280;27787;44.594;11.046;2022-07-23T03:37:49;100906.97;;;26.64;54.67
42125;BME280;27787;44.594;11.046;2022-07-23T03:40:34;100905.22;;;26.63;54.51
42125;BME280;27787;44.594;11.046;2022-07-23T03:43:18;100904.16;;;26.66;54.31
42125;BME280;27787;44.594;11.046;2022-07-23T03:46:03;100914.47;;;26.59;54.58
42125;BME280;27787;44.594;11.046;2022-07-23T03:48:48;100916.75;;;26.51;54.27
42125;BME280;27787;44.594;11.046;2022-07-23T03:51:32;100924.25;;;26.46;54.00
42125;BME280;27787;44.594;11.046;2022-07-23T03:54:16;100925.03;;;26.48;54.21
42125;BME280;27787;44.594;11.046;2022-07-23T03:57:01;100920.50;;;26.49;53.93
42125;BME280;27787;44.594;11.046;2022-07-23T03:59:46;100918.47;;;26.52;53.56
42125;BME280;27787;44.594;11.046;2022-07-23T04:02:30;100917.19;;;26.59;52.98
42125;BME280;27787;44.594;11.046;2022-07-23T04:05:14;100915.25;;;26.61;51.96
42125;BME280;27787;44.594;11.046;2022-07-23T04:08:01;100919.72;;;26.62;51.53
42125;BME280;27787;44.594;11.046;2022-07-23T04:10:45;100908.97;;;26.61;51.32
42125;BME280;27787;44.594;11.046;2022-07-23T04:13:31;100920.13;;;26.55;51.35
42125;BME280;27787;44.594;11.046;2022-07-23T04:16:17;100915.34;;;26.60;51.39
42125;BME280;27787;44.594;11.046;2022-07-23T04:19:03;100925.81;;;26.66;51.57
42125;BME280;27787;44.594;11.046;2022-07-23T04:21:53;100922.50;;;26.61;51.40
42125;BME280;27787;44.594;11.046;2022-07-23T04:24:38;100929.13;;;26.55;51.64
42125;BME280;27787;44.594;11.046;2022-07-23T04:27:22;100929.94;;;26.57;51.34
42125;BME280;27787;44.594;11.046;2022-07-23T04:30:08;100929.00;;;26.58;51.11
42125;BME280;27787;44.594;11.046;2022-07-23T04:32:52;100923.22;;;26.49;51.63
42125;BME280;27787;44.594;11.046;2022-07-23T04:35:41;100926.75;;;26.33;52.13
42125;BME280;27787;44.594;11.046;2022-07-23T04:38:46;100917.00;;;26.13;52.42
42125;BME280;27787;44.594;11.046;2022-07-23T04:41:31;100915.59;;;26.06;52.39
42125;BME280;27787;44.594;11.046;2022-07-23T04:44:15;100918.53;;;26.02;51.16
42125;BME280;27787;44.594;11.046;2022-07-23T04:47:00;100915.13;;;25.98;50.01
42125;BME280;27787;44.594;11.046;2022-07-23T04:49:44;100918.72;;;25.99;49.70
42125;BME280;27787;44.594;11.046;2022-07-23T04:52:29;100917.66;;;26.01;49.59
42125;BME280;27787;44.594;11.046;2022-07-23T04:55:15;100912.34;;;26.00;48.84
42125;BME280;27787;44.594;11.046;2022-07-23T04:57:59;100910.84;;;25.94;47.82
42125;BME280;27787;44.594;11.046;2022-07-23T05:00:44;100904.50;;;25.95;47.25
42125;BME280;27787;44.594;11.046;2022-07-23T05:03:29;100911.66;;;25.96;46.64
42125;BME280;27787;44.594;11.046;2022-07-23T05:06:12;100921.16;;;26.03;46.01
42125;BME280;27787;44.594;11.046;2022-07-23T05:08:56;100909.16;;;26.09;45.44
42125;BME280;27787;44.594;11.046;2022-07-23T05:11:41;100918.75;;;26.14;44.67
42125;BME280;27787;44.594;11.046;2022-07-23T05:14:25;100924.53;;;26.24;44.20
42125;BME280;27787;44.594;11.046;2022-07-23T05:17:09;100925.22;;;26.28;43.69
42125;BME280;27787;44.594;11.046;2022-07-23T05:19:54;100930.13;;;26.21;44.12
42125;BME280;27787;44.594;11.046;2022-07-23T05:22:38;100923.84;;;26.21;44.40
42125;BME280;27787;44.594;11.046;2022-07-23T05:25:22;100923.03;;;26.36;44.03
42125;BME280;27787;44.594;11.046;2022-07-23T05:28:07;100915.69;;;26.54;43.03
42125;BME280;27787;44.594;11.046;2022-07-23T05:30:52;100914.03;;;26.67;42.63
42125;BME280;27787;44.594;11.046;2022-07-23T05:33:36;100912.81;;;26.72;43.11
42125;BME280;27787;44.594;11.046;2022-07-23T05:36:21;100913.94;;;26.84;42.57
42125;BME280;27787;44.594;11.046;2022-07-23T05:39:11;100911.75;;;26.91;42.39
42125;BME280;27787;44.594;11.046;2022-07-23T05:41:55;100896.81;;;26.84;43.16
42125;BME280;27787;44.594;11.046;2022-07-23T05:44:40;100899.59;;;26.82;43.01
42125;BME280;27787;44.594;11.046;2022-07-23T05:47:25;100904.22;;;26.80;43.22
42125;BME280;27787;44.594;11.046;2022-07-23T05:50:10;100902.06;;;26.87;43.23
42125;BME280;27787;44.594;11.046;2022-07-23T05:53:01;100894.72;;;26.89;43.37
42125;BME280;27787;44.594;11.046;2022-07-23T05:55:45;100884.94;;;26.86;43.58
42125;BME280;27787;44.594;11.046;2022-07-23T05:58:30;100886.50;;;26.90;43.60
42125;BME280;27787;44.594;11.046;2022-07-23T06:01:14;100889.47;;;27.01;43.24
42125;BME280;27787;44.594;11.046;2022-07-23T06:04:07;100878.25;;;27.08;43.30
42125;BME280;27787;44.594;11.046;2022-07-23T06:06:55;100892.25;;;27.16;43.80
42125;BME280;27787;44.594;11.046;2022-07-23T06:09:39;100889.63;;;27.14;45.10
42125;BME280;27787;44.594;11.046;2022-07-23T06:12:23;100890.69;;;27.12;45.40
42125;BME280;27787;44.594;11.046;2022-07-23T06:15:08;100890.69;;;27.12;45.62
42125;BME280;27787;44.594;11.046;2022-07-23T06:17:53;100891.47;;;27.14;45.19
42125;BME280;27787;44.594;11.046;2022-07-23T06:20:37;100884.97;;;27.16;45.15
42125;BME280;27787;44.594;11.046;2022-07-23T06:23:21;100889.09;;;27.23;44.38
42125;BME280;27787;44.594;11.046;2022-07-23T06:26:06;100893.94;;;27.32;44.43
42125;BME280;27787;44.594;11.046;2022-07-23T06:28:50;100901.72;;;27.39;44.67
42125;BME280;27787;44.594;11.046;2022-07-23T06:31:35;100904.91;;;27.45;44.68
42125;BME280;27787;44.594;11.046;2022-07-23T06:34:19;100899.03;;;27.53;44.80
42125;BME280;27787;44.594;11.046;2022-07-23T06:37:03;100902.22;;;27.59;44.55
42125;BME280;27787;44.594;11.046;2022-07-23T06:39:47;100902.94;;;27.63;44.62
42125;BME280;27787;44.594;11.046;2022-07-23T06:42:31;100901.34;;;27.75;44.66
42125;BME280;27787;44.594;11.046;2022-07-23T06:45:20;100907.25;;;27.81;44.03
42125;BME280;27787;44.594;11.046;2022-07-23T06:48:05;100902.31;;;27.88;44.22
42125;BME280;27787;44.594;11.046;2022-07-23T06:50:49;100896.50;;;27.94;44.06
42125;BME280;27787;44.594;11.046;2022-07-23T06:53:40;100907.84;;;28.01;44.02
42125;BME280;27787;44.594;11.046;2022-07-23T06:56:27;100892.13;;;28.06;44.23
42125;BME280;27787;44.594;11.046;2022-07-23T06:59:12;100898.94;;;28.13;44.24
42125;BME280;27787;44.594;11.046;2022-07-23T07:01:56;100898.63;;;28.17;44.03
42125;BME280;27787;44.594;11.046;2022-07-23T07:04:42;100900.16;;;28.21;43.95
42125;BME280;27787;44.594;11.046;2022-07-23T07:07:26;100901.72;;;28.26;44.53
42125;BME280;27787;44.594;11.046;2022-07-23T07:10:10;100898.75;;;28.30;44.59
42125;BME280;27787;44.594;11.046;2022-07-23T07:12:54;100903.09;;;28.33;44.99
42125;BME280;27787;44.594;11.046;2022-07-23T07:15:38;100906.47;;;28.36;45.04
42125;BME280;27787;44.594;11.046;2022-07-23T07:18:22;100902.72;;;28.39;45.13
42125;BME280;27787;44.594;11.046;2022-07-23T07:21:06;100898.16;;;28.39;44.92
42125;BME280;27787;44.594;11.046;2022-07-23T07:23:51;100898.72;;;28.44;45.41
42125;BME280;27787;44.594;11.046;2022-07-23T07:26:35;100909.38;;;28.47;44.80
42125;BME280;27787;44.594;11.046;2022-07-23T07:29:19;100910.03;;;28.51;44.62
42125;BME280;27787;44.594;11.046;2022-07-23T07:32:04;100909.78;;;28.56;44.49
42125;BME280;27787;44.594;11.046;2022-07-23T07:34:48;100902.06;;;28.62;44.31
42125;BME280;27787;44.594;11.046;2022-07-23T07:37:32;100918.09;;;28.67;44.50
42125;BME280;27787;44.594;11.046;2022-07-23T07:40:17;100915.28;;;28.68;44.55
42125;BME280;27787;44.594;11.046;2022-07-23T07:43:01;100918.75;;;28.70;43.54
42125;BME280;27787;44.594;11.046;2022-07-23T07:45:47;100922.34;;;28.71;44.17
42125;BME280;27787;44.594;11.046;2022-07-23T07:48:31;100920.38;;;28.73;44.14
42125;BME280;27787;44.594;11.046;2022-07-23T07:51:15;100925.63;;;28.76;43.63
42125;BME280;27787;44.594;11.046;2022-07-23T07:53:59;100920.88;;;28.79;43.38
42125;BME280;27787;44.594;11.046;2022-07-23T07:56:43;100931.75;;;28.79;43.45
42125;BME280;27787;44.594;11.046;2022-07-23T07:59:27;100932.19;;;28.86;42.42
42125;BME280;27787;44.594;11.046;2022-07-23T08:02:11;100926.84;;;28.99;42.31
42125;BME280;27787;44.594;11.046;2022-07-23T08:04:56;100939.19;;;29.04;42.81
42125;BME280;27787;44.594;11.046;2022-07-23T08:07:41;100928.84;;;29.10;42.60
42125;BME280;27787;44.594;11.046;2022-07-23T08:10:27;100935.06;;;29.12;42.49
42125;BME280;27787;44.594;11.046;2022-07-23T08:13:13;100941.69;;;29.07;42.26
42125;BME280;27787;44.594;11.046;2022-07-23T08:16:01;100940.81;;;29.07;42.48
42125;BME280;27787;44.594;11.046;2022-07-23T08:18:45;100939.22;;;29.17;41.51
42125;BME280;27787;44.594;11.046;2022-07-23T08:21:30;100943.56;;;29.20;40.54
42125;BME280;27787;44.594;11.046;2022-07-23T08:24:14;100951.88;;;29.31;40.17
42125;BME280;27787;44.594;11.046;2022-07-23T08:26:57;100959.78;;;29.48;37.46
42125;BME280;27787;44.594;11.046;2022-07-23T08:29:41;100956.22;;;29.60;38.72
42125;BME280;27787;44.594;11.046;2022-07-23T08:32:25;100963.75;;;29.70;37.79
42125;BME280;27787;44.594;11.046;2022-07-23T08:35:09;100954.63;;;29.71;38.14
42125;BME280;27787;44.594;11.046;2022-07-23T08:37:55;100949.59;;;29.64;37.96
42125;BME280;27787;44.594;11.046;2022-07-23T08:40:45;100950.22;;;29.55;36.90
42125;BME280;27787;44.594;11.046;2022-07-23T08:43:31;100946.31;;;29.59;34.20
42125;BME280;27787;44.594;11.046;2022-07-23T08:46:18;100951.81;;;29.85;32.88
42125;BME280;27787;44.594;11.046;2022-07-23T08:49:03;100958.28;;;30.09;32.16
42125;BME280;27787;44.594;11.046;2022-07-23T08:51:48;100960.31;;;30.31;30.35
42125;BME280;27787;44.594;11.046;2022-07-23T08:54:34;100959.13;;;30.48;29.77
42125;BME280;27787;44.594;11.046;2022-07-23T08:57:18;100958.31;;;30.59;29.66
42125;BME280;27787;44.594;11.046;2022-07-23T09:00:04;100949.59;;;30.66;30.53
42125;BME280;27787;44.594;11.046;2022-07-23T09:02:49;100950.78;;;30.62;30.40
42125;BME280;27787;44.594;11.046;2022-07-23T09:05:35;100948.50;;;30.69;30.63
42125;BME280;27787;44.594;11.046;2022-07-23T09:08:24;100945.97;;;30.78;30.18
42125;BME280;27787;44.594;11.046;2022-07-23T09:11:11;100945.50;;;30.85;30.63
42125;BME280;27787;44.594;11.046;2022-07-23T09:13:56;100933.16;;;30.92;30.04
42125;BME280;27787;44.594;11.046;2022-07-23T09:16:42;100926.72;;;30.93;30.17
42125;BME280;27787;44.594;11.046;2022-07-23T09:19:28;100935.03;;;30.91;30.61
42125;BME280;27787;44.594;11.046;2022-07-23T09:22:26;100930.31;;;30.93;30.48
42125;BME280;27787;44.594;11.046;2022-07-23T09:25:15;100922.50;;;30.89;31.01
42125;BME280;27787;44.594;11.046;2022-07-23T09:28:00;100926.84;;;30.91;30.92
42125;BME280;27787;44.594;11.046;2022-07-23T09:30:46;100931.63;;;31.00;30.57
42125;BME280;27787;44.594;11.046;2022-07-23T09:33:33;100929.41;;;31.05;30.14
42125;BME280;27787;44.594;11.046;2022-07-23T09:36:28;100915.41;;;31.10;30.96
42125;BME280;27787;44.594;11.046;2022-07-23T09:39:13;100912.09;;;31.18;29.49
42125;BME280;27787;44.594;11.046;2022-07-23T09:42:13;100911.91;;;31.21;30.34
42125;BME280;27787;44.594;11.046;2022-07-23T09:44:58;100911.22;;;31.17;30.77
42125;BME280;27787;44.594;11.046;2022-07-23T09:47:42;100907.06;;;31.24;31.27
42125;BME280;27787;44.594;11.046;2022-07-23T09:50:29;100907.22;;;31.34;31.08
42125;BME280;27787;44.594;11.046;2022-07-23T09:53:25;100917.81;;;31.38;31.06
42125;BME280;27787;44.594;11.046;2022-07-23T09:56:13;100899.66;;;31.37;31.06
42125;BME280;27787;44.594;11.046;2022-07-23T09:58:59;100895.69;;;31.30;31.33
42125;BME280;27787;44.594;11.046;2022-07-23T10:02:11;100901.75;;;31.10;32.87
42125;BME280;27787;44.594;11.046;2022-07-23T10:05:15;100893.97;;;31.29;31.83
42125;BME280;27787;44.594;11.046;2022-07-23T10:08:23;100896.84;;;31.39;32.10
42125;BME280;27787;44.594;11.046;2022-07-23T10:11:27;100897.63;;;31.52;30.42
42125;BME280;27787;44.594;11.046;2022-07-23T10:14:27;100891.94;;;31.55;31.63
42125;BME280;27787;44.594;11.046;2022-07-23T10:17:16;100891.78;;;31.46;32.43
42125;BME280;27787;44.594;11.046;2022-07-23T10:20:01;100903.91;;;31.42;29.99
42125;BME280;27787;44.594;11.046;2022-07-23T10:23:02;100898.50;;;31.53;30.01
42125;BME280;27787;44.594;11.046;2022-07-23T10:25:57;100900.63;;;31.60;30.94
42125;BME280;27787;44.594;11.046;2022-07-23T10:34:44;100885.34;;;32.04;30.59
42125;BME280;27787;44.594;11.046;2022-07-23T10:37:45;100885.94;;;32.08;30.21
42125;BME280;27787;44.594;11.046;2022-07-23T10:40:31;100884.31;;;32.16;30.27
42125;BME280;27787;44.594;11.046;2022-07-23T10:43:16;100880.50;;;32.19;30.95
42125;BME280;27787;44.594;11.046;2022-07-23T10:46:23;100874.63;;;32.23;29.90
42125;BME280;27787;44.594;11.046;2022-07-23T10:52:20;100874.63;;;32.23;30.11
42125;BME280;27787;44.594;11.046;2022-07-23T10:57:51;100866.47;;;32.35;30.14
42125;BME280;27787;44.594;11.046;2022-07-23T11:00:37;100862.88;;;32.34;30.63
42125;BME280;27787;44.594;11.046;2022-07-23T11:03:30;100852.53;;;32.38;29.76
42125;BME280;27787;44.594;11.046;2022-07-23T11:06:17;100847.44;;;32.44;30.15
42125;BME280;27787;44.594;11.046;2022-07-23T11:09:25;100841.47;;;32.50;29.56
42125;BME280;27787;44.594;11.046;2022-07-23T11:20:35;100827.69;;;32.41;29.36
42125;BME280;27787;44.594;11.046;2022-07-23T11:23:19;100824.94;;;32.41;29.49
42125;BME280;27787;44.594;11.046;2022-07-23T11:26:04;100827.78;;;32.50;29.32
42125;BME280;27787;44.594;11.046;2022-07-23T11:28:49;100824.28;;;32.60;28.53
42125;BME280;27787;44.594;11.046;2022-07-23T11:31:33;100821.28;;;32.63;28.68
42125;BME280;27787;44.594;11.046;2022-07-23T11:37:26;100815.38;;;32.46;29.31
42125;BME280;27787;44.594;11.046;2022-07-23T11:40:12;100819.34;;;32.42;29.46
42125;BME280;27787;44.594;11.046;2022-07-23T11:42:59;100813.25;;;32.50;29.32
42125;BME280;27787;44.594;11.046;2022-07-23T11:45:47;100803.94;;;32.52;29.04
42125;BME280;27787;44.594;11.046;2022-07-23T11:48:31;100804.78;;;32.53;29.74
42125;BME280;27787;44.594;11.046;2022-07-23T11:51:25;100807.34;;;32.66;30.30
42125;BME280;27787;44.594;11.046;2022-07-23T11:54:09;100804.88;;;32.63;30.62
42125;BME280;27787;44.594;11.046;2022-07-23T11:56:57;100800.13;;;32.76;30.21
42125;BME280;27787;44.594;11.046;2022-07-23T11:59:42;100791.91;;;32.87;30.32
42125;BME280;27787;44.594;11.046;2022-07-23T12:02:27;100794.09;;;32.93;30.21
42125;BME280;27787;44.594;11.046;2022-07-23T12:05:14;100782.78;;;32.98;30.05
42125;BME280;27787;44.594;11.046;2022-07-23T12:08:01;100786.75;;;32.94;30.09
42125;BME280;27787;44.594;11.046;2022-07-23T12:10:46;100787.63;;;32.94;30.28
42125;BME280;27787;44.594;11.046;2022-07-23T12:13:30;100788.13;;;32.99;29.95
42125;BME280;27787;44.594;11.046;2022-07-23T12:16:14;100789.56;;;33.03;29.75
42125;BME280;27787;44.594;11.046;2022-07-23T12:18:58;100781.22;;;33.05;30.26
42125;BME280;27787;44.594;11.046;2022-07-23T12:21:42;100775.75;;;33.05;28.87
42125;BME280;27787;44.594;11.046;2022-07-23T12:24:26;100772.28;;;33.03;29.31
42125;BME280;27787;44.594;11.046;2022-07-23T12:27:11;100769.28;;;33.06;29.03
42125;BME280;27787;44.594;11.046;2022-07-23T12:29:55;100766.38;;;32.98;29.69
42125;BME280;27787;44.594;11.046;2022-07-23T12:32:43;100758.69;;;33.12;29.67
42125;BME280;27787;44.594;11.046;2022-07-23T12:35:47;100761.06;;;33.06;29.92
42125;BME280;27787;44.594;11.046;2022-07-23T12:38:47;100758.19;;;33.07;29.84
42125;BME280;27787;44.594;11.046;2022-07-23T12:41:51;100756.06;;;33.32;29.61
42125;BME280;27787;44.594;11.046;2022-07-23T12:44:36;100760.63;;;33.42;29.18
42125;BME280;27787;44.594;11.046;2022-07-23T12:47:20;100761.03;;;33.38;29.96
42125;BME280;27787;44.594;11.046;2022-07-23T12:50:04;100753.59;;;33.29;30.49
42125;BME280;27787;44.594;11.046;2022-07-23T12:52:48;100757.63;;;33.25;30.45
42125;BME280;27787;44.594;11.046;2022-07-23T12:55:33;100752.56;;;33.41;29.21
42125;BME280;27787;44.594;11.046;2022-07-23T12:58:19;100747.41;;;33.48;28.77
42125;BME280;27787;44.594;11.046;2022-07-23T13:01:04;100752.25;;;33.65;29.08
42125;BME280;27787;44.594;11.046;2022-07-23T13:06:44;100735.63;;;33.87;28.59
42125;BME280;27787;44.594;11.046;2022-07-23T13:09:30;100734.41;;;33.80;29.21
42125;BME280;27787;44.594;11.046;2022-07-23T13:12:14;100743.78;;;33.78;29.75
42125;BME280;27787;44.594;11.046;2022-07-23T13:14:58;100728.94;;;33.80;29.02
42125;BME280;27787;44.594;11.046;2022-07-23T13:17:42;100726.44;;;34.08;28.21
42125;BME280;27787;44.594;11.046;2022-07-23T13:20:29;100736.25;;;34.10;28.18
42125;BME280;27787;44.594;11.046;2022-07-23T13:23:15;100726.59;;;34.06;28.95
42125;BME280;27787;44.594;11.046;2022-07-23T13:26:00;100731.78;;;34.09;28.94
42125;BME280;27787;44.594;11.046;2022-07-23T13:28:44;100721.88;;;34.27;27.92
42125;BME280;27787;44.594;11.046;2022-07-23T13:31:28;100714.94;;;34.33;28.20
42125;BME280;27787;44.594;11.046;2022-07-23T13:34:13;100715.81;;;34.34;28.63
42125;BME280;27787;44.594;11.046;2022-07-23T13:36:57;100705.34;;;34.39;28.13
42125;BME280;27787;44.594;11.046;2022-07-23T13:39:41;100712.69;;;34.67;27.58
42125;BME280;27787;44.594;11.046;2022-07-23T13:42:26;100707.03;;;34.69;27.86
42125;BME280;27787;44.594;11.046;2022-07-23T13:45:10;100704.16;;;34.70;27.56
42125;BME280;27787;44.594;11.046;2022-07-23T13:47:54;100707.03;;;34.78;27.96
42125;BME280;27787;44.594;11.046;2022-07-23T13:50:39;100693.31;;;34.88;27.29
42125;BME280;27787;44.594;11.046;2022-07-23T13:53:24;100695.31;;;34.86;27.40
42125;BME280;27787;44.594;11.046;2022-07-23T13:56:08;100688.84;;;34.87;27.74
42125;BME280;27787;44.594;11.046;2022-07-23T13:58:52;100695.91;;;34.89;27.98
42125;BME280;27787;44.594;11.046;2022-07-23T14:01:36;100688.53;;;35.00;27.37
42125;BME280;27787;44.594;11.046;2022-07-23T14:04:21;100693.13;;;35.18;26.94
42125;BME280;27787;44.594;11.046;2022-07-23T14:07:06;100693.06;;;35.38;26.68
42125;BME280;27787;44.594;11.046;2022-07-23T14:09:50;100696.19;;;35.53;26.64
42125;BME280;27787;44.594;11.046;2022-07-23T14:12:34;100692.56;;;35.52;26.93
42125;BME280;27787;44.594;11.046;2022-07-23T14:15:19;100685.78;;;35.56;26.26
42125;BME280;27787;44.594;11.046;2022-07-23T14:18:04;100681.16;;;35.57;26.72
42125;BME280;27787;44.594;11.046;2022-07-23T14:20:48;100677.06;;;35.61;26.26
42125;BME280;27787;44.594;11.046;2022-07-23T14:23:32;100677.63;;;35.64;26.34
42125;BME280;27787;44.594;11.046;2022-07-23T14:26:18;100681.47;;;35.81;26.75
42125;BME280;27787;44.594;11.046;2022-07-23T14:29:02;100673.00;;;35.92;26.25
42125;BME280;27787;44.594;11.046;2022-07-23T14:31:47;100671.22;;;36.01;26.26
42125;BME280;27787;44.594;11.046;2022-07-23T14:34:32;100664.69;;;36.02;26.95
42125;BME280;27787;44.594;11.046;2022-07-23T14:37:17;100673.91;;;36.11;26.68
42125;BME280;27787;44.594;11.046;2022-07-23T14:40:01;100663.06;;;36.09;26.29
42125;BME280;27787;44.594;11.046;2022-07-23T14:42:46;100662.91;;;36.11;26.91